Kirksey, Kentucky
Current Conditions -  °F | °C
As of 1:55 AM on Saturday 01 Nov 2014 (Local Time) from KCEY Reporting Station
Clear Clear  
Wind Chill: 28°   Ceiling: Unl
Heat Index: 36°   Visibility: 10mi
Dew Point: 23°   Wind: 12mph
Humidity: 60%   Direction: 340°NNW
Pressure: 30.27"   Gusts: 17mph
Location:  36.7°N, 88.4°W
Report Text: KCEY 010655Z AUTO 34010G15KT 10SM CLR 02/M05 A3027 RMK AO1
Loading
Personal Weather Stations






























Interactive Weather Map
Tropical Storm Tracking
New forecast layout! Learn more

10-Day Weather Forecast

Advertisements
Track Severe Weather on mobile